createdAt,value
2018-02-15T00:02:15.076Z,15.48
2018-02-15T00:04:43.384Z,13.77
2018-02-15T00:07:10.891Z,14.18
2018-02-15T00:09:38.484Z,14.52
2018-02-15T00:12:06.004Z,14.63
2018-02-15T00:14:33.501Z,15.73
2018-02-15T00:17:01.805Z,14.05
2018-02-15T00:19:29.324Z,15.93
2018-02-15T00:21:57.606Z,15.20
2018-02-15T00:24:25.895Z,12.18
2018-02-15T00:26:53.404Z,12.90
2018-02-15T00:29:20.931Z,11.60
2018-02-15T00:31:48.434Z,11.95
2018-02-15T00:34:15.960Z,11.70
2018-02-15T00:36:43.481Z,12.73
2018-02-15T00:39:11.749Z,10.45
2018-02-15T00:41:40.050Z,11.50
2018-02-15T00:44:07.555Z,11.88
2018-02-15T00:46:35.053Z,11.27
2018-02-15T00:49:02.575Z,11.25
2018-02-15T00:51:30.074Z,10.63
2018-02-15T00:53:57.612Z,12.00
2018-02-15T00:56:25.883Z,11.73
2018-02-15T00:58:54.193Z,10.90
2018-02-15T01:01:21.712Z,10.82
2018-02-15T01:03:49.221Z,12.48
2018-02-15T01:06:16.732Z,12.43
2018-02-15T01:08:44.268Z,14.18
2018-02-15T01:11:11.765Z,14.80
2018-02-15T01:13:40.021Z,12.25
2018-02-15T01:16:07.555Z,14.90
2018-02-15T01:18:35.071Z,18.87
2018-02-15T01:21:02.599Z,12.02
2018-02-15T01:23:30.097Z,15.63
2018-02-15T01:25:57.636Z,29.98
2018-02-15T01:28:25.136Z,29.42
2018-02-15T01:30:52.659Z,26.25
2018-02-15T01:33:20.152Z,18.77
2018-02-15T01:35:47.659Z,15.38
2018-02-15T01:38:15.919Z,12.05
2018-02-15T01:40:43.434Z,19.08
2018-02-15T01:43:10.952Z,13.80
2018-02-15T01:45:39.243Z,13.27
2018-02-15T01:48:06.756Z,13.60
2018-02-15T01:50:34.379Z,20.65
2018-02-15T01:53:01.879Z,17.85
2018-02-15T01:55:29.412Z,17.17
2018-02-15T01:57:56.936Z,19.60
2018-02-15T02:00:24.450Z,22.40
2018-02-15T02:02:51.954Z,27.50
2018-02-15T02:05:19.470Z,30.67
2018-02-15T02:07:46.989Z,22.10
2018-02-15T02:10:14.504Z,18.00
2018-02-15T02:12:42.761Z,24.25
2018-02-15T02:15:10.303Z,21.90
2018-02-15T02:17:37.795Z,20.23
2018-02-15T02:20:05.301Z,16.65
2018-02-15T02:22:32.820Z,16.67
2018-02-15T02:25:01.114Z,16.58
2018-02-15T02:27:28.635Z,19.70
2018-02-15T02:29:56.158Z,19.42
2018-02-15T02:32:23.671Z,12.25
2018-02-15T02:34:51.981Z,16.12
2018-02-15T02:37:19.482Z,15.35
2018-02-15T02:39:47.011Z,11.38
2018-02-15T02:42:14.523Z,14.25
2018-02-15T02:44:42.914Z,10.27
2018-02-15T02:47:10.432Z,11.80
2018-02-15T02:49:37.948Z,9.50
2018-02-15T02:52:05.454Z,11.55
2018-02-15T02:54:32.963Z,11.77
2018-02-15T02:57:00.473Z,11.57
2018-02-15T02:59:27.975Z,10.30
2018-02-15T03:01:55.495Z,9.48
2018-02-15T03:04:22.989Z,10.27
2018-02-15T03:06:50.506Z,11.40
2018-02-15T03:09:18.006Z,11.07
2018-02-15T03:11:45.527Z,9.65
2018-02-15T03:14:13.030Z,9.23
2018-02-15T03:16:40.547Z,9.25
2018-02-15T03:19:08.054Z,9.93
2018-02-15T03:21:35.590Z,11.75
2018-02-15T03:24:03.108Z,13.23
2018-02-15T03:26:30.644Z,11.52
2018-02-15T03:28:58.141Z,11.10
2018-02-15T03:31:26.436Z,13.00
2018-02-15T03:33:53.959Z,11.50
2018-02-15T03:36:21.488Z,13.82
2018-02-15T03:38:48.977Z,13.00
2018-02-15T03:41:16.490Z,11.93
2018-02-15T03:43:43.990Z,11.45
2018-02-15T03:46:11.481Z,10.55
2018-02-15T03:48:39.753Z,9.65
2018-02-15T03:51:08.032Z,10.77
2018-02-15T03:53:36.325Z,16.33
2018-02-15T03:56:03.838Z,28.23
2018-02-15T03:58:31.347Z,29.00
2018-02-15T04:00:58.860Z,23.80
2018-02-15T04:03:26.394Z,22.20
2018-02-15T04:05:53.899Z,20.15
2018-02-15T04:08:22.181Z,17.62
2018-02-15T04:10:49.668Z,12.13
2018-02-15T04:13:17.178Z,11.60
2018-02-15T04:15:45.441Z,9.98
2018-02-15T04:18:13.016Z,12.00
2018-02-15T04:20:41.314Z,14.00
2018-02-15T04:23:08.845Z,12.10
2018-02-15T04:25:36.352Z,12.23
2018-02-15T04:28:03.878Z,11.32
2018-02-15T04:30:32.149Z,10.45
2018-02-15T04:33:00.430Z,9.75
2018-02-15T04:35:28.733Z,9.95
2018-02-15T04:37:56.266Z,9.77
2018-02-15T04:40:24.554Z,9.10
2018-02-15T04:42:52.044Z,9.07
2018-02-15T04:45:19.589Z,9.60
2018-02-15T04:47:47.085Z,8.75
2018-02-15T04:50:14.592Z,9.93
2018-02-15T04:52:42.111Z,9.10
2018-02-15T04:55:09.628Z,11.75
2018-02-15T04:57:37.120Z,10.63
2018-02-15T05:00:04.660Z,12.13
2018-02-15T05:02:32.158Z,11.65
2018-02-15T05:05:00.432Z,11.60
2018-02-15T05:07:28.710Z,11.80
2018-02-15T05:09:56.986Z,11.90
2018-02-15T05:12:25.263Z,17.17
2018-02-15T05:14:53.581Z,10.88
2018-02-15T05:17:21.100Z,10.88
2018-02-15T05:19:49.407Z,10.23
2018-02-15T05:22:16.927Z,10.05
2018-02-15T05:24:45.197Z,8.50
2018-02-15T05:27:12.690Z,9.88
2018-02-15T05:29:40.235Z,7.75
2018-02-15T05:32:08.513Z,9.85
2018-02-15T05:34:36.777Z,8.15
2018-02-15T05:37:05.071Z,8.70
2018-02-15T05:39:32.583Z,9.95
2018-02-15T05:42:00.115Z,10.10
2018-02-15T05:44:27.605Z,9.43
2018-02-15T05:46:55.135Z,9.20
2018-02-15T05:49:22.652Z,9.65
2018-02-15T05:51:50.992Z,9.48
2018-02-15T05:54:18.494Z,9.77
2018-02-15T05:56:46.002Z,8.23
2018-02-15T05:59:13.496Z,9.63
2018-02-15T06:01:41.799Z,10.35
2018-02-15T06:04:09.309Z,9.55
2018-02-15T06:06:36.864Z,8.10
2018-02-15T06:09:04.403Z,9.10
2018-02-15T06:11:31.973Z,9.75
2018-02-15T06:13:59.507Z,8.60
2018-02-15T06:16:27.072Z,10.05
2018-02-15T06:18:54.603Z,8.02
2018-02-15T06:21:22.170Z,9.80
2018-02-15T06:23:49.716Z,8.98
2018-02-15T06:26:17.242Z,9.18
2018-02-15T06:28:44.791Z,10.00
2018-02-15T06:31:12.332Z,12.95
2018-02-15T06:33:39.902Z,12.23
2018-02-15T06:36:07.430Z,10.45
2018-02-15T06:38:35.101Z,11.23
2018-02-15T06:41:02.674Z,12.10
2018-02-15T06:43:30.236Z,7.82
2018-02-15T06:45:57.784Z,9.23
2018-02-15T06:48:25.335Z,11.00
2018-02-15T06:50:52.905Z,9.32
2018-02-15T06:53:20.473Z,11.77
2018-02-15T06:55:48.006Z,11.40
2018-02-15T06:58:15.585Z,11.80
2018-02-15T07:00:43.133Z,10.00
2018-02-15T07:03:10.923Z,9.70
2018-02-15T07:05:38.467Z,10.18
2018-02-15T07:08:06.051Z,10.40
2018-02-15T07:10:33.589Z,8.57
2018-02-15T07:13:01.929Z,9.10
2018-02-15T07:15:29.469Z,8.02
2018-02-15T07:17:57.770Z,8.60
2018-02-15T07:20:25.333Z,6.85
2018-02-15T07:22:52.909Z,8.13
2018-02-15T07:25:20.478Z,10.15
2018-02-15T07:27:48.030Z,8.35
2018-02-15T07:30:15.583Z,9.90
2018-02-15T07:32:43.129Z,12.15
2018-02-15T07:35:10.688Z,9.32
2018-02-15T07:37:38.233Z,10.23
2018-02-15T07:40:05.795Z,12.25
2018-02-15T07:42:33.357Z,13.90
2018-02-15T07:45:00.906Z,15.48
2018-02-15T07:47:29.224Z,15.57
2018-02-15T07:49:56.787Z,14.10
2018-02-15T07:52:24.313Z,14.05
2018-02-15T07:54:51.877Z,14.23
2018-02-15T07:57:19.570Z,14.93
2018-02-15T07:59:47.133Z,16.50
2018-02-15T08:02:14.667Z,16.12
2018-02-15T08:04:42.222Z,18.17
2018-02-15T08:07:09.759Z,18.25
2018-02-15T08:09:37.312Z,16.25
2018-02-15T08:12:05.642Z,16.58
2018-02-15T08:14:33.175Z,12.70
2018-02-15T08:17:00.738Z,15.02
2018-02-15T08:19:28.289Z,14.77
2018-02-15T08:21:55.833Z,15.55
2018-02-15T08:24:23.388Z,15.45
2018-02-15T08:26:51.703Z,15.95
2018-02-15T08:29:19.225Z,18.62
2018-02-15T08:31:47.569Z,15.82
2018-02-15T08:34:15.120Z,14.57
2018-02-15T08:36:42.685Z,14.95
2018-02-15T08:39:10.223Z,16.17
2018-02-15T08:41:37.772Z,18.30
2018-02-15T08:44:05.314Z,18.62
2018-02-15T08:46:32.874Z,15.35
2018-02-15T08:49:00.415Z,13.45
2018-02-15T08:51:28.730Z,13.55
2018-02-15T08:53:56.291Z,14.43
2018-02-15T08:56:23.847Z,13.43
2018-02-15T08:58:51.426Z,11.75
2018-02-15T09:01:19.004Z,12.35
2018-02-15T09:03:46.560Z,16.52
2018-02-15T09:06:14.091Z,11.95
2018-02-15T09:08:41.656Z,15.75
2018-02-15T09:11:09.200Z,16.45
2018-02-15T09:13:36.756Z,18.65
2018-02-15T09:16:05.224Z,15.85
2018-02-15T09:18:32.769Z,16.25
2018-02-15T09:21:01.086Z,15.50
2018-02-15T09:23:28.656Z,17.02
2018-02-15T09:25:56.213Z,16.23
2018-02-15T09:28:23.793Z,17.27
2018-02-15T09:30:51.340Z,17.75
2018-02-15T09:33:18.912Z,12.37
2018-02-15T09:35:46.461Z,12.10
2018-02-15T09:38:14.025Z,22.85
2018-02-15T09:40:41.580Z,10.38
2018-02-15T09:43:09.146Z,9.32
2018-02-15T09:45:36.696Z,10.82
2018-02-15T09:48:04.257Z,12.40
2018-02-15T09:50:31.813Z,10.63
2018-02-15T09:52:59.394Z,11.12
2018-02-15T09:55:26.962Z,10.43
2018-02-15T09:57:55.282Z,10.50
2018-02-15T10:00:22.844Z,10.90
2018-02-15T10:02:50.383Z,10.93
2018-02-15T10:05:17.952Z,10.65
2018-02-15T10:07:45.492Z,10.90
2018-02-15T10:10:13.820Z,14.40
2018-02-15T10:12:41.369Z,13.55
2018-02-15T10:15:08.917Z,11.73
2018-02-15T10:17:36.577Z,11.27
2018-02-15T10:20:04.139Z,13.55
2018-02-15T10:22:31.666Z,10.65
2018-02-15T10:24:59.988Z,11.55
2018-02-15T10:27:27.538Z,13.30
2018-02-15T10:29:55.088Z,11.65
2018-02-15T10:32:22.619Z,11.20
2018-02-15T10:34:50.174Z,14.02
2018-02-15T10:37:18.473Z,13.27
2018-02-15T10:39:46.026Z,12.23
2018-02-15T10:42:13.558Z,12.82
2018-02-15T10:44:41.850Z,10.70
2018-02-15T10:47:09.424Z,12.45
2018-02-15T10:49:36.960Z,11.95
2018-02-15T10:52:05.270Z,11.50
2018-02-15T10:54:32.820Z,12.60
2018-02-15T10:57:00.371Z,13.52
2018-02-15T10:59:27.912Z,13.45
2018-02-15T11:02:01.846Z,12.07
2018-02-15T11:04:34.378Z,13.35
2018-02-15T11:07:01.926Z,11.90
2018-02-15T11:09:29.467Z,13.05
2018-02-15T11:11:57.054Z,13.05
2018-02-15T11:14:24.581Z,12.48
2018-02-15T11:16:52.134Z,12.43
2018-02-15T11:19:19.686Z,11.50
2018-02-15T11:21:47.252Z,13.23
2018-02-15T11:24:14.821Z,12.85
2018-02-15T11:26:42.405Z,12.95
2018-02-15T11:29:09.956Z,13.10
2018-02-15T11:31:37.500Z,12.93
2018-02-15T11:34:05.060Z,12.45
2018-02-15T11:36:32.590Z,13.70
2018-02-15T11:39:00.142Z,15.05
2018-02-15T11:41:27.675Z,13.27
2018-02-15T11:43:56.000Z,15.82
2018-02-15T11:46:23.551Z,15.63
2018-02-15T11:48:51.106Z,13.52
2018-02-15T11:51:18.642Z,14.25
2018-02-15T11:53:46.964Z,14.10
2018-02-15T11:56:14.556Z,13.45
2018-02-15T11:58:42.107Z,12.88
2018-02-15T12:01:09.648Z,12.98
2018-02-15T12:03:37.198Z,12.25
2018-02-15T12:06:04.748Z,13.68
2018-02-15T12:08:32.299Z,15.10
2018-02-15T12:10:59.835Z,13.25
2018-02-15T12:13:28.163Z,12.27
2018-02-15T12:15:55.699Z,15.95
2018-02-15T12:18:23.246Z,10.88
2018-02-15T12:20:50.778Z,11.45
2018-02-15T12:23:19.075Z,9.70
2018-02-15T12:25:46.648Z,11.80
2018-02-15T12:28:14.178Z,11.55
2018-02-15T12:30:42.498Z,11.40
2018-02-15T12:33:10.050Z,11.02
2018-02-15T12:35:37.604Z,11.90
2018-02-15T12:38:05.153Z,9.75
2018-02-15T12:40:32.699Z,10.48
2018-02-15T12:43:00.249Z,10.05
2018-02-15T12:45:28.577Z,7.10
2018-02-15T12:47:56.121Z,8.30
2018-02-15T12:50:23.686Z,8.65
2018-02-15T12:52:51.212Z,8.35
2018-02-15T12:55:19.532Z,8.10
2018-02-15T12:57:47.084Z,8.10
2018-02-15T13:00:14.653Z,6.97
2018-02-15T13:02:42.196Z,7.60
2018-02-15T13:05:09.739Z,8.80
2018-02-15T13:07:37.279Z,7.45
2018-02-15T13:10:05.591Z,6.95
2018-02-15T13:12:45.073Z,8.88
2018-02-15T13:15:24.430Z,8.48
2018-02-15T13:17:52.740Z,5.60
2018-02-15T13:20:20.772Z,6.60
2018-02-15T13:22:49.085Z,6.87
2018-02-15T13:25:16.622Z,6.72
2018-02-15T13:27:56.173Z,7.68
2018-02-15T13:30:23.719Z,6.68
2018-02-15T13:32:51.261Z,7.95
2018-02-15T13:35:19.586Z,8.02
2018-02-15T13:37:47.125Z,5.35
2018-02-15T13:40:14.659Z,5.65
2018-02-15T13:42:42.973Z,5.70
2018-02-15T13:45:10.504Z,6.97
2018-02-15T13:47:38.816Z,7.22
2018-02-15T13:50:06.348Z,5.78
2018-02-15T13:52:33.892Z,6.65
2018-02-15T13:55:02.194Z,5.85
2018-02-15T13:57:29.760Z,5.85
2018-02-15T13:59:57.291Z,7.37
2018-02-15T14:02:25.604Z,6.95
2018-02-15T14:04:53.146Z,6.47
2018-02-15T14:07:20.690Z,7.32
2018-02-15T14:09:48.253Z,6.78
2018-02-15T14:12:15.784Z,6.32
2018-02-15T14:14:43.346Z,5.82
2018-02-15T14:17:10.909Z,5.32
2018-02-15T14:19:39.233Z,5.80
2018-02-15T14:22:06.767Z,6.10
2018-02-15T14:24:34.309Z,5.53
2018-02-15T14:27:02.616Z,6.20
2018-02-15T14:29:30.196Z,6.30
2018-02-15T14:31:57.745Z,5.97
2018-02-15T14:34:25.293Z,10.30
2018-02-15T14:36:52.844Z,7.50
2018-02-15T14:39:20.392Z,7.60
2018-02-15T14:41:48.716Z,6.30
2018-02-15T14:44:16.265Z,10.95
2018-02-15T14:46:43.825Z,6.00
2018-02-15T14:49:11.356Z,5.57
2018-02-15T14:51:38.922Z,6.03
2018-02-15T14:54:06.464Z,10.32
2018-02-15T14:56:34.778Z,9.63
2018-02-15T14:59:02.311Z,8.00
2018-02-15T15:01:29.883Z,5.37
2018-02-15T15:03:58.183Z,8.32
2018-02-15T15:06:25.742Z,5.12
2018-02-15T15:08:53.362Z,6.32
2018-02-15T15:11:20.950Z,5.90
2018-02-15T15:13:48.482Z,5.93
2018-02-15T15:16:16.063Z,5.10
2018-02-15T15:18:43.586Z,6.90
2018-02-15T15:21:11.904Z,4.87
2018-02-15T15:23:39.458Z,4.62
2018-02-15T15:26:06.999Z,4.45
2018-02-15T15:28:34.543Z,4.55
2018-02-15T15:31:02.098Z,5.10
2018-02-15T15:33:30.420Z,4.55
2018-02-15T15:35:57.941Z,6.20
2018-02-15T15:38:25.505Z,4.65
2018-02-15T15:40:53.052Z,10.90
2018-02-15T15:43:21.367Z,6.70
2018-02-15T15:45:48.916Z,6.05
2018-02-15T15:48:16.473Z,10.50
2018-02-15T15:50:44.020Z,5.18
2018-02-15T15:53:11.597Z,4.93
2018-02-15T15:55:39.131Z,5.53
2018-02-15T15:58:06.729Z,5.07
2018-02-15T16:00:34.258Z,5.28
2018-02-15T16:03:01.798Z,4.75
2018-02-15T16:05:30.104Z,5.68
2018-02-15T16:07:57.646Z,5.70
2018-02-15T16:10:25.201Z,9.18
2018-02-15T16:12:52.752Z,6.18
2018-02-15T16:15:21.124Z,7.03
2018-02-15T16:17:49.422Z,8.55
2018-02-15T16:20:16.994Z,5.47
2018-02-15T16:22:44.526Z,7.40
2018-02-15T16:25:12.852Z,6.05
2018-02-15T16:27:40.374Z,8.40
2018-02-15T16:30:08.699Z,6.55
2018-02-15T16:32:36.344Z,9.90
2018-02-15T16:35:03.917Z,6.30
2018-02-15T16:37:31.467Z,8.90
2018-02-15T16:39:59.016Z,7.87
2018-02-15T16:42:26.550Z,6.25
2018-02-15T16:44:54.129Z,7.85
2018-02-15T16:47:21.661Z,6.07
2018-02-15T16:49:49.987Z,6.93
2018-02-15T16:52:18.300Z,7.25
2018-02-15T16:54:45.871Z,7.40
2018-02-15T16:57:14.185Z,7.90
2018-02-15T16:59:41.725Z,5.68
2018-02-15T17:02:09.293Z,6.93
2018-02-15T17:04:36.837Z,7.97
2018-02-15T17:07:04.396Z,7.55
2018-02-15T17:09:32.708Z,7.20
2018-02-15T17:12:00.280Z,8.32
2018-02-15T17:14:27.817Z,8.18
2018-02-15T17:16:55.386Z,7.90
2018-02-15T17:19:22.923Z,9.07
2018-02-15T17:21:50.507Z,8.93
2018-02-15T17:24:18.038Z,9.20
2018-02-15T17:26:45.600Z,10.07
2018-02-15T17:29:13.158Z,10.82
2018-02-15T17:31:40.723Z,10.13
2018-02-15T17:34:08.259Z,9.40
2018-02-15T17:36:36.579Z,11.40
2018-02-15T17:39:04.149Z,10.40
2018-02-15T17:41:31.678Z,11.32
2018-02-15T17:43:59.248Z,11.93
2018-02-15T17:46:26.792Z,9.35
2018-02-15T17:48:54.366Z,12.10
2018-02-15T17:51:21.920Z,11.77
2018-02-15T17:53:49.493Z,13.38
2018-02-15T17:56:17.043Z,13.50
2018-02-15T17:58:44.607Z,15.20
2018-02-15T18:01:12.156Z,22.70
2018-02-15T18:03:39.706Z,14.10
2018-02-15T18:06:07.246Z,13.13
2018-02-15T18:08:34.806Z,14.10
2018-02-15T18:11:02.334Z,13.73
2018-02-15T18:13:29.882Z,13.75
2018-02-15T18:15:57.414Z,13.15
2018-02-15T18:18:24.984Z,14.20
2018-02-15T18:20:52.519Z,14.73
2018-02-15T18:23:20.820Z,12.77
2018-02-15T18:25:48.370Z,14.10
2018-02-15T18:28:15.926Z,12.15
2018-02-15T18:30:43.479Z,17.02
2018-02-15T18:33:11.014Z,15.45
2018-02-15T18:35:38.582Z,17.40
2018-02-15T18:38:06.881Z,16.37
2018-02-15T18:40:35.203Z,18.00
2018-02-15T18:43:02.765Z,20.25
2018-02-15T18:45:30.323Z,18.45
2018-02-15T18:47:57.859Z,19.60
2018-02-15T18:50:25.430Z,17.15
2018-02-15T18:52:53.734Z,15.57
2018-02-15T18:55:21.296Z,18.30
2018-02-15T18:57:48.826Z,16.20
2018-02-15T19:00:16.409Z,16.60
2018-02-15T19:02:43.970Z,17.42
2018-02-15T19:05:11.541Z,20.02
2018-02-15T19:07:39.862Z,21.85
2018-02-15T19:10:07.429Z,21.70
2018-02-15T19:12:34.988Z,22.80
2018-02-15T19:15:02.532Z,24.02
2018-02-15T19:17:30.082Z,25.42
2018-02-15T19:19:57.615Z,24.77
2018-02-15T19:22:25.956Z,26.33
2018-02-15T19:24:53.518Z,24.50
2018-02-15T19:27:21.084Z,24.10
2018-02-15T19:29:48.627Z,23.52
2018-02-15T19:32:16.208Z,22.05
2018-02-15T19:34:43.760Z,20.33
2018-02-15T19:37:11.316Z,20.25
2018-02-15T19:39:38.862Z,20.95
2018-02-15T19:42:06.431Z,20.95
2018-02-15T19:44:33.970Z,20.60
2018-02-15T19:47:01.546Z,19.70
2018-02-15T19:49:29.107Z,21.77
2018-02-15T19:51:56.682Z,20.80
2018-02-15T19:54:24.228Z,21.52
2018-02-15T19:56:51.756Z,20.25
2018-02-15T19:59:19.307Z,20.77
2018-02-15T20:01:47.128Z,22.17
2018-02-15T20:04:14.709Z,22.73
2018-02-15T20:06:43.010Z,22.58
2018-02-15T20:09:10.588Z,21.90
2018-02-15T20:11:38.147Z,21.90
2018-02-15T20:14:05.717Z,22.30
2018-02-15T20:16:33.251Z,23.30
2018-02-15T20:19:00.807Z,20.98
2018-02-15T20:21:28.356Z,21.83
2018-02-15T20:23:56.692Z,23.85
2018-02-15T20:26:29.940Z,22.92
2018-02-15T20:28:57.492Z,24.75
2018-02-15T20:31:25.035Z,23.67
2018-02-15T20:33:53.373Z,24.83
2018-02-15T20:36:20.902Z,24.23
2018-02-15T20:38:54.200Z,25.08
2018-02-15T20:41:21.767Z,24.63
2018-02-15T20:43:49.337Z,24.50
2018-02-15T20:46:16.884Z,25.60
2018-02-15T20:48:44.447Z,26.60
2018-02-15T20:51:17.714Z,23.77
2018-02-15T20:53:50.898Z,25.05
2018-02-15T20:56:19.240Z,24.40
2018-02-15T20:58:46.763Z,25.73
2018-02-15T21:01:14.329Z,24.05
2018-02-15T21:03:41.886Z,25.33
2018-02-15T21:06:09.503Z,27.25
2018-02-15T21:08:37.011Z,25.58
2018-02-15T21:11:04.579Z,28.62
2018-02-15T21:13:32.124Z,27.62
2018-02-15T21:15:59.694Z,27.60
2018-02-15T21:18:27.240Z,29.90
2018-02-15T21:20:54.792Z,27.83
2018-02-15T21:23:22.329Z,29.58
2018-02-15T21:25:49.900Z,28.87
2018-02-15T21:28:17.451Z,28.75
2018-02-15T21:30:45.027Z,27.13
2018-02-15T21:33:12.579Z,28.30
2018-02-15T21:35:40.145Z,29.58
2018-02-15T21:38:07.701Z,30.75
2018-02-15T21:40:35.238Z,30.90
2018-02-15T21:43:02.798Z,30.58
2018-02-15T21:45:30.338Z,32.33
2018-02-15T21:47:58.673Z,30.45
2018-02-15T21:50:26.221Z,29.20
2018-02-15T21:52:53.845Z,31.55
2018-02-15T21:55:22.169Z,30.23
2018-02-15T21:57:49.733Z,28.85
2018-02-15T22:00:17.289Z,26.70
2018-02-15T22:02:44.841Z,29.58
2018-02-15T22:05:12.401Z,28.75
2018-02-15T22:07:39.955Z,30.42
2018-02-15T22:10:07.485Z,28.75
2018-02-15T22:12:35.061Z,26.00
2018-02-15T22:15:02.608Z,29.02
2018-02-15T22:17:30.153Z,29.17
2018-02-15T22:19:58.435Z,27.98
2018-02-15T22:22:26.731Z,28.60
2018-02-15T22:24:54.237Z,27.67
2018-02-15T22:27:21.772Z,29.73
2018-02-15T22:29:49.286Z,30.80
2018-02-15T22:32:17.564Z,29.63
2018-02-15T22:34:45.104Z,28.77
2018-02-15T22:37:13.386Z,26.50
2018-02-15T22:39:41.668Z,29.35
2018-02-15T22:42:09.983Z,28.25
2018-02-15T22:44:37.504Z,24.50
2018-02-15T22:47:05.033Z,25.73
2018-02-15T22:49:32.550Z,27.13
2018-02-15T22:52:00.082Z,28.75
2018-02-15T22:54:28.371Z,30.73
2018-02-15T22:56:55.885Z,28.50
2018-02-15T22:59:23.424Z,31.70
2018-02-15T23:01:50.921Z,31.00
2018-02-15T23:04:19.197Z,27.15
2018-02-15T23:06:46.714Z,24.37
2018-02-15T23:09:14.250Z,27.50
2018-02-15T23:11:41.750Z,27.17
2018-02-15T23:14:09.276Z,28.42
2018-02-15T23:16:36.791Z,25.52
2018-02-15T23:19:05.099Z,24.77
2018-02-15T23:21:32.603Z,26.90
2018-02-15T23:24:00.111Z,25.48
2018-02-15T23:26:27.639Z,25.77
2018-02-15T23:28:55.931Z,27.73
2018-02-15T23:31:23.462Z,25.80
2018-02-15T23:33:50.979Z,24.98
2018-02-15T23:36:18.505Z,25.70
2018-02-15T23:38:46.812Z,25.23
2018-02-15T23:41:14.331Z,31.17
2018-02-15T23:43:42.616Z,32.22
2018-02-15T23:46:10.920Z,29.58
2018-02-15T23:48:38.418Z,33.55
2018-02-15T23:51:05.940Z,31.37
2018-02-15T23:53:33.451Z,33.08
2018-02-15T23:56:01.737Z,30.62
2018-02-15T23:58:30.029Z,30.58
